sensor_id;sensor_type;location;lat;lon;timestamp;P1;durP1;ratioP1;P2;durP2;ratioP2
773;SDS011;370;48.810;9.150;2023-04-15T00:00:07;0.88;;;0.85;;
773;SDS011;370;48.810;9.150;2023-04-15T00:02:35;0.73;;;0.70;;
773;SDS011;370;48.810;9.150;2023-04-15T00:05:02;1.15;;;1.02;;
773;SDS011;370;48.810;9.150;2023-04-15T00:07:29;3.25;;;1.15;;
773;SDS011;370;48.810;9.150;2023-04-15T00:09:57;2.60;;;1.65;;
773;SDS011;370;48.810;9.150;2023-04-15T00:12:24;1.10;;;1.00;;
773;SDS011;370;48.810;9.150;2023-04-15T00:14:51;4.18;;;2.00;;
773;SDS011;370;48.810;9.150;2023-04-15T00:17:19;1.17;;;1.05;;
773;SDS011;370;48.810;9.150;2023-04-15T00:19:46;6.80;;;1.60;;
773;SDS011;370;48.810;9.150;2023-04-15T00:22:13;0.95;;;0.90;;
773;SDS011;370;48.810;9.150;2023-04-15T00:24:41;2.03;;;1.48;;
773;SDS011;370;48.810;9.150;2023-04-15T00:27:08;1.20;;;1.10;;
773;SDS011;370;48.810;9.150;2023-04-15T00:29:35;2.08;;;1.63;;
773;SDS011;370;48.810;9.150;2023-04-15T00:32:02;2.00;;;1.15;;
773;SDS011;370;48.810;9.150;2023-04-15T00:34:30;1.20;;;0.82;;
773;SDS011;370;48.810;9.150;2023-04-15T00:36:57;4.82;;;1.40;;
773;SDS011;370;48.810;9.150;2023-04-15T00:39:24;1.15;;;1.10;;
773;SDS011;370;48.810;9.150;2023-04-15T00:41:52;2.88;;;0.80;;
773;SDS011;370;48.810;9.150;2023-04-15T00:44:19;5.10;;;2.15;;
773;SDS011;370;48.810;9.150;2023-04-15T00:46:46;0.85;;;0.70;;
773;SDS011;370;48.810;9.150;2023-04-15T00:49:15;1.02;;;0.80;;
773;SDS011;370;48.810;9.150;2023-04-15T00:51:44;3.53;;;0.90;;
773;SDS011;370;48.810;9.150;2023-04-15T00:54:11;1.75;;;1.73;;
773;SDS011;370;48.810;9.150;2023-04-15T00:56:38;5.88;;;1.27;;
773;SDS011;370;48.810;9.150;2023-04-15T00:59:06;0.75;;;0.65;;
773;SDS011;370;48.810;9.150;2023-04-15T01:01:34;3.17;;;1.35;;
773;SDS011;370;48.810;9.150;2023-04-15T01:04:01;1.33;;;0.95;;
773;SDS011;370;48.810;9.150;2023-04-15T01:06:28;0.80;;;0.80;;
773;SDS011;370;48.810;9.150;2023-04-15T01:08:57;2.67;;;0.60;;
773;SDS011;370;48.810;9.150;2023-04-15T01:11:25;2.38;;;0.93;;
773;SDS011;370;48.810;9.150;2023-04-15T01:13:53;1.35;;;0.70;;
773;SDS011;370;48.810;9.150;2023-04-15T01:16:21;0.90;;;0.85;;
773;SDS011;370;48.810;9.150;2023-04-15T01:18:48;1.02;;;0.93;;
773;SDS011;370;48.810;9.150;2023-04-15T01:21:16;0.85;;;0.80;;
773;SDS011;370;48.810;9.150;2023-04-15T01:23:44;1.08;;;1.00;;
773;SDS011;370;48.810;9.150;2023-04-15T01:26:14;1.58;;;1.20;;
773;SDS011;370;48.810;9.150;2023-04-15T01:28:41;2.60;;;1.50;;
773;SDS011;370;48.810;9.150;2023-04-15T01:31:09;1.05;;;0.68;;
773;SDS011;370;48.810;9.150;2023-04-15T01:33:38;1.55;;;1.45;;
773;SDS011;370;48.810;9.150;2023-04-15T01:36:06;3.47;;;1.08;;
773;SDS011;370;48.810;9.150;2023-04-15T01:38:35;9.68;;;1.90;;
773;SDS011;370;48.810;9.150;2023-04-15T01:41:02;0.75;;;0.70;;
773;SDS011;370;48.810;9.150;2023-04-15T01:43:32;1.20;;;1.20;;
773;SDS011;370;48.810;9.150;2023-04-15T01:46:00;1.30;;;1.20;;
773;SDS011;370;48.810;9.150;2023-04-15T01:48:26;1.63;;;1.52;;
773;SDS011;370;48.810;9.150;2023-04-15T01:50:53;1.48;;;0.93;;
773;SDS011;370;48.810;9.150;2023-04-15T01:53:21;2.47;;;1.33;;
773;SDS011;370;48.810;9.150;2023-04-15T01:55:48;0.88;;;0.73;;
773;SDS011;370;48.810;9.150;2023-04-15T01:58:15;3.67;;;1.30;;
773;SDS011;370;48.810;9.150;2023-04-15T02:00:43;3.85;;;1.23;;
773;SDS011;370;48.810;9.150;2023-04-15T02:03:10;1.58;;;0.88;;
773;SDS011;370;48.810;9.150;2023-04-15T02:05:38;2.10;;;0.88;;
773;SDS011;370;48.810;9.150;2023-04-15T02:08:04;0.60;;;0.50;;
773;SDS011;370;48.810;9.150;2023-04-15T02:10:31;1.02;;;1.02;;
773;SDS011;370;48.810;9.150;2023-04-15T02:12:58;0.73;;;0.63;;
773;SDS011;370;48.810;9.150;2023-04-15T02:15:25;1.70;;;0.85;;
773;SDS011;370;48.810;9.150;2023-04-15T02:17:53;0.75;;;0.63;;
773;SDS011;370;48.810;9.150;2023-04-15T02:20:20;0.80;;;0.73;;
773;SDS011;370;48.810;9.150;2023-04-15T02:22:47;0.90;;;0.55;;
773;SDS011;370;48.810;9.150;2023-04-15T02:25:14;0.82;;;0.73;;
773;SDS011;370;48.810;9.150;2023-04-15T02:27:41;0.80;;;0.63;;
773;SDS011;370;48.810;9.150;2023-04-15T02:30:08;1.05;;;0.95;;
773;SDS011;370;48.810;9.150;2023-04-15T02:32:36;0.93;;;0.55;;
773;SDS011;370;48.810;9.150;2023-04-15T02:35:04;2.25;;;0.70;;
773;SDS011;370;48.810;9.150;2023-04-15T02:37:34;1.63;;;0.68;;
773;SDS011;370;48.810;9.150;2023-04-15T02:40:06;4.03;;;1.05;;
773;SDS011;370;48.810;9.150;2023-04-15T02:42:34;0.50;;;0.45;;
773;SDS011;370;48.810;9.150;2023-04-15T02:45:00;1.75;;;1.00;;
773;SDS011;370;48.810;9.150;2023-04-15T02:47:27;0.90;;;0.60;;
773;SDS011;370;48.810;9.150;2023-04-15T02:49:54;1.20;;;0.90;;
773;SDS011;370;48.810;9.150;2023-04-15T02:52:23;0.90;;;0.80;;
773;SDS011;370;48.810;9.150;2023-04-15T02:54:50;0.90;;;0.75;;
773;SDS011;370;48.810;9.150;2023-04-15T02:57:17;3.15;;;1.02;;
773;SDS011;370;48.810;9.150;2023-04-15T02:59:44;1.58;;;1.48;;
773;SDS011;370;48.810;9.150;2023-04-15T03:02:11;3.55;;;1.35;;
773;SDS011;370;48.810;9.150;2023-04-15T03:04:37;0.88;;;0.65;;
773;SDS011;370;48.810;9.150;2023-04-15T03:07:04;1.85;;;1.05;;
773;SDS011;370;48.810;9.150;2023-04-15T03:09:32;0.90;;;0.60;;
773;SDS011;370;48.810;9.150;2023-04-15T03:11:59;1.60;;;1.17;;
773;SDS011;370;48.810;9.150;2023-04-15T03:14:26;1.25;;;1.13;;
773;SDS011;370;48.810;9.150;2023-04-15T03:16:52;2.60;;;0.73;;
773;SDS011;370;48.810;9.150;2023-04-15T03:19:20;0.70;;;0.70;;
773;SDS011;370;48.810;9.150;2023-04-15T03:21:46;1.23;;;0.90;;
773;SDS011;370;48.810;9.150;2023-04-15T03:24:13;2.38;;;0.85;;
773;SDS011;370;48.810;9.150;2023-04-15T03:26:41;5.65;;;0.80;;
773;SDS011;370;48.810;9.150;2023-04-15T03:29:08;1.25;;;1.08;;
773;SDS011;370;48.810;9.150;2023-04-15T03:31:34;2.38;;;0.80;;
773;SDS011;370;48.810;9.150;2023-04-15T03:34:01;3.42;;;1.77;;
773;SDS011;370;48.810;9.150;2023-04-15T03:36:28;1.98;;;1.23;;
773;SDS011;370;48.810;9.150;2023-04-15T03:38:57;9.38;;;1.75;;
773;SDS011;370;48.810;9.150;2023-04-15T03:41:23;2.47;;;1.38;;
773;SDS011;370;48.810;9.150;2023-04-15T03:43:51;3.95;;;1.20;;
773;SDS011;370;48.810;9.150;2023-04-15T03:46:18;3.92;;;1.10;;
773;SDS011;370;48.810;9.150;2023-04-15T03:48:45;1.42;;;0.85;;
773;SDS011;370;48.810;9.150;2023-04-15T03:51:12;4.95;;;1.40;;
773;SDS011;370;48.810;9.150;2023-04-15T03:53:39;1.42;;;0.85;;
773;SDS011;370;48.810;9.150;2023-04-15T03:56:05;1.05;;;0.80;;
773;SDS011;370;48.810;9.150;2023-04-15T03:58:32;2.45;;;2.20;;
773;SDS011;370;48.810;9.150;2023-04-15T04:01:01;1.20;;;1.05;;
773;SDS011;370;48.810;9.150;2023-04-15T04:03:27;7.53;;;1.10;;
773;SDS011;370;48.810;9.150;2023-04-15T04:05:54;1.48;;;0.88;;
773;SDS011;370;48.810;9.150;2023-04-15T04:08:21;6.47;;;0.90;;
773;SDS011;370;48.810;9.150;2023-04-15T04:10:48;0.77;;;0.65;;
773;SDS011;370;48.810;9.150;2023-04-15T04:13:15;0.65;;;0.65;;
773;SDS011;370;48.810;9.150;2023-04-15T04:15:41;2.17;;;1.85;;
773;SDS011;370;48.810;9.150;2023-04-15T04:18:09;9.68;;;2.28;;
773;SDS011;370;48.810;9.150;2023-04-15T04:20:36;3.70;;;1.00;;
773;SDS011;370;48.810;9.150;2023-04-15T04:23:03;12.32;;;1.33;;
773;SDS011;370;48.810;9.150;2023-04-15T04:25:30;3.15;;;0.98;;
773;SDS011;370;48.810;9.150;2023-04-15T04:27:57;1.58;;;0.75;;
773;SDS011;370;48.810;9.150;2023-04-15T04:30:23;1.33;;;1.10;;
773;SDS011;370;48.810;9.150;2023-04-15T04:32:50;1.20;;;1.00;;
773;SDS011;370;48.810;9.150;2023-04-15T04:35:18;3.90;;;1.10;;
773;SDS011;370;48.810;9.150;2023-04-15T04:37:45;1.73;;;0.90;;
773;SDS011;370;48.810;9.150;2023-04-15T04:40:12;4.10;;;1.27;;
773;SDS011;370;48.810;9.150;2023-04-15T04:42:39;4.03;;;1.80;;
773;SDS011;370;48.810;9.150;2023-04-15T04:45:06;0.70;;;0.60;;
773;SDS011;370;48.810;9.150;2023-04-15T04:47:34;1.13;;;1.02;;
773;SDS011;370;48.810;9.150;2023-04-15T04:50:00;1.50;;;1.23;;
773;SDS011;370;48.810;9.150;2023-04-15T04:52:29;1.45;;;1.25;;
773;SDS011;370;48.810;9.150;2023-04-15T04:54:55;2.00;;;1.20;;
773;SDS011;370;48.810;9.150;2023-04-15T04:57:22;1.80;;;1.70;;
773;SDS011;370;48.810;9.150;2023-04-15T04:59:49;1.38;;;1.38;;
773;SDS011;370;48.810;9.150;2023-04-15T05:02:15;1.13;;;1.02;;
773;SDS011;370;48.810;9.150;2023-04-15T05:04:42;4.55;;;1.90;;
773;SDS011;370;48.810;9.150;2023-04-15T05:07:09;8.60;;;1.45;;
773;SDS011;370;48.810;9.150;2023-04-15T05:09:37;0.93;;;0.85;;
773;SDS011;370;48.810;9.150;2023-04-15T05:12:04;1.70;;;0.95;;
773;SDS011;370;48.810;9.150;2023-04-15T05:14:31;1.60;;;1.50;;
773;SDS011;370;48.810;9.150;2023-04-15T05:16:58;3.67;;;2.30;;
773;SDS011;370;48.810;9.150;2023-04-15T05:19:25;4.75;;;1.20;;
773;SDS011;370;48.810;9.150;2023-04-15T05:21:51;1.05;;;0.90;;
773;SDS011;370;48.810;9.150;2023-04-15T05:24:18;11.65;;;1.38;;
773;SDS011;370;48.810;9.150;2023-04-15T05:26:46;4.45;;;1.45;;
773;SDS011;370;48.810;9.150;2023-04-15T05:29:13;1.08;;;1.02;;
773;SDS011;370;48.810;9.150;2023-04-15T05:31:40;2.92;;;1.63;;
773;SDS011;370;48.810;9.150;2023-04-15T05:34:07;0.88;;;0.77;;
773;SDS011;370;48.810;9.150;2023-04-15T05:36:34;1.40;;;1.30;;
773;SDS011;370;48.810;9.150;2023-04-15T05:39:01;7.53;;;1.15;;
773;SDS011;370;48.810;9.150;2023-04-15T05:41:28;2.05;;;1.73;;
773;SDS011;370;48.810;9.150;2023-04-15T05:43:56;18.85;;;1.80;;
773;SDS011;370;48.810;9.150;2023-04-15T05:46:23;3.50;;;1.45;;
773;SDS011;370;48.810;9.150;2023-04-15T05:48:50;3.72;;;1.33;;
773;SDS011;370;48.810;9.150;2023-04-15T05:51:17;1.15;;;1.05;;
773;SDS011;370;48.810;9.150;2023-04-15T05:53:43;1.70;;;1.35;;
773;SDS011;370;48.810;9.150;2023-04-15T05:56:11;2.13;;;1.50;;
773;SDS011;370;48.810;9.150;2023-04-15T05:58:37;2.70;;;1.38;;
773;SDS011;370;48.810;9.150;2023-04-15T06:01:05;5.25;;;1.85;;
773;SDS011;370;48.810;9.150;2023-04-15T06:03:32;3.25;;;1.65;;
773;SDS011;370;48.810;9.150;2023-04-15T06:05:59;5.47;;;1.92;;
773;SDS011;370;48.810;9.150;2023-04-15T06:08:26;3.20;;;2.20;;
773;SDS011;370;48.810;9.150;2023-04-15T06:10:53;3.85;;;2.50;;
773;SDS011;370;48.810;9.150;2023-04-15T06:13:20;2.55;;;2.08;;
773;SDS011;370;48.810;9.150;2023-04-15T06:15:47;2.60;;;1.95;;
773;SDS011;370;48.810;9.150;2023-04-15T06:18:15;3.97;;;2.63;;
773;SDS011;370;48.810;9.150;2023-04-15T06:20:42;9.50;;;3.00;;
773;SDS011;370;48.810;9.150;2023-04-15T06:23:08;2.50;;;1.95;;
773;SDS011;370;48.810;9.150;2023-04-15T06:25:35;4.13;;;2.30;;
773;SDS011;370;48.810;9.150;2023-04-15T06:28:02;3.72;;;1.75;;
773;SDS011;370;48.810;9.150;2023-04-15T06:30:29;4.85;;;2.38;;
773;SDS011;370;48.810;9.150;2023-04-15T06:32:55;5.40;;;2.35;;
773;SDS011;370;48.810;9.150;2023-04-15T06:35:24;8.07;;;2.63;;
773;SDS011;370;48.810;9.150;2023-04-15T06:37:51;6.68;;;2.30;;
773;SDS011;370;48.810;9.150;2023-04-15T06:40:18;4.45;;;3.08;;
773;SDS011;370;48.810;9.150;2023-04-15T06:42:45;4.18;;;3.03;;
773;SDS011;370;48.810;9.150;2023-04-15T06:45:11;10.48;;;3.35;;
773;SDS011;370;48.810;9.150;2023-04-15T06:47:38;9.63;;;3.45;;
773;SDS011;370;48.810;9.150;2023-04-15T06:50:06;8.52;;;3.60;;
773;SDS011;370;48.810;9.150;2023-04-15T06:52:35;4.15;;;2.70;;
773;SDS011;370;48.810;9.150;2023-04-15T06:55:02;5.68;;;3.10;;
773;SDS011;370;48.810;9.150;2023-04-15T06:57:29;6.22;;;4.00;;
773;SDS011;370;48.810;9.150;2023-04-15T06:59:56;8.20;;;3.22;;
773;SDS011;370;48.810;9.150;2023-04-15T07:02:22;5.30;;;2.60;;
773;SDS011;370;48.810;9.150;2023-04-15T07:04:49;5.68;;;3.10;;
773;SDS011;370;48.810;9.150;2023-04-15T07:07:16;9.85;;;3.80;;
773;SDS011;370;48.810;9.150;2023-04-15T07:09:44;8.45;;;3.45;;
773;SDS011;370;48.810;9.150;2023-04-15T07:12:11;5.90;;;3.57;;
773;SDS011;370;48.810;9.150;2023-04-15T07:14:38;10.40;;;2.80;;
773;SDS011;370;48.810;9.150;2023-04-15T07:17:04;5.90;;;2.93;;
773;SDS011;370;48.810;9.150;2023-04-15T07:19:31;3.67;;;2.50;;
773;SDS011;370;48.810;9.150;2023-04-15T07:21:58;13.37;;;2.47;;
773;SDS011;370;48.810;9.150;2023-04-15T07:24:25;4.80;;;2.80;;
773;SDS011;370;48.810;9.150;2023-04-15T07:26:53;9.23;;;3.00;;
773;SDS011;370;48.810;9.150;2023-04-15T07:29:21;6.60;;;3.07;;
773;SDS011;370;48.810;9.150;2023-04-15T07:31:48;7.33;;;3.20;;
773;SDS011;370;48.810;9.150;2023-04-15T07:34:15;7.63;;;2.63;;
773;SDS011;370;48.810;9.150;2023-04-15T07:36:41;7.10;;;2.90;;
773;SDS011;370;48.810;9.150;2023-04-15T07:39:08;6.03;;;3.10;;
773;SDS011;370;48.810;9.150;2023-04-15T07:41:35;6.60;;;3.13;;
773;SDS011;370;48.810;9.150;2023-04-15T07:44:03;9.23;;;2.97;;
773;SDS011;370;48.810;9.150;2023-04-15T07:46:30;11.77;;;3.07;;
773;SDS011;370;48.810;9.150;2023-04-15T07:48:57;6.80;;;2.93;;
773;SDS011;370;48.810;9.150;2023-04-15T07:51:23;6.37;;;3.07;;
773;SDS011;370;48.810;9.150;2023-04-15T07:53:50;6.50;;;2.67;;
773;SDS011;370;48.810;9.150;2023-04-15T07:56:17;3.77;;;2.80;;
773;SDS011;370;48.810;9.150;2023-04-15T07:58:44;8.97;;;2.70;;
773;SDS011;370;48.810;9.150;2023-04-15T08:01:12;7.50;;;2.53;;
773;SDS011;370;48.810;9.150;2023-04-15T08:03:39;4.37;;;2.70;;
773;SDS011;370;48.810;9.150;2023-04-15T08:06:05;9.60;;;2.40;;
773;SDS011;370;48.810;9.150;2023-04-15T08:08:32;6.20;;;2.73;;
773;SDS011;370;48.810;9.150;2023-04-15T08:10:59;8.50;;;2.73;;
773;SDS011;370;48.810;9.150;2023-04-15T08:13:26;4.83;;;2.40;;
773;SDS011;370;48.810;9.150;2023-04-15T08:16:12;4.50;;;2.43;;
773;SDS011;370;48.810;9.150;2023-04-15T08:18:42;4.40;;;2.43;;
773;SDS011;370;48.810;9.150;2023-04-15T08:21:09;4.53;;;2.53;;
773;SDS011;370;48.810;9.150;2023-04-15T08:23:36;2.90;;;2.40;;
773;SDS011;370;48.810;9.150;2023-04-15T08:26:03;5.57;;;2.07;;
773;SDS011;370;48.810;9.150;2023-04-15T08:28:30;3.80;;;1.80;;
773;SDS011;370;48.810;9.150;2023-04-15T08:30:57;6.90;;;1.93;;
773;SDS011;370;48.810;9.150;2023-04-15T08:33:25;8.57;;;1.97;;
773;SDS011;370;48.810;9.150;2023-04-15T08:35:52;5.83;;;1.77;;
773;SDS011;370;48.810;9.150;2023-04-15T08:38:19;2.47;;;1.87;;
773;SDS011;370;48.810;9.150;2023-04-15T08:40:46;3.77;;;1.97;;
773;SDS011;370;48.810;9.150;2023-04-15T08:43:14;3.83;;;2.30;;
773;SDS011;370;48.810;9.150;2023-04-15T08:49:10;4.87;;;1.93;;
773;SDS011;370;48.810;9.150;2023-04-15T08:51:37;2.17;;;2.00;;
773;SDS011;370;48.810;9.150;2023-04-15T08:54:17;4.20;;;1.70;;
773;SDS011;370;48.810;9.150;2023-04-15T08:59:33;11.13;;;2.33;;
773;SDS011;370;48.810;9.150;2023-04-15T09:02:00;2.03;;;1.93;;
773;SDS011;370;48.810;9.150;2023-04-15T09:04:29;3.93;;;1.93;;
773;SDS011;370;48.810;9.150;2023-04-15T09:06:56;3.60;;;2.13;;
773;SDS011;370;48.810;9.150;2023-04-15T09:09:23;4.17;;;1.93;;
773;SDS011;370;48.810;9.150;2023-04-15T09:11:49;4.03;;;2.20;;
773;SDS011;370;48.810;9.150;2023-04-15T09:14:16;4.87;;;2.23;;
773;SDS011;370;48.810;9.150;2023-04-15T09:19:25;4.40;;;1.93;;
773;SDS011;370;48.810;9.150;2023-04-15T09:21:55;6.43;;;1.77;;
773;SDS011;370;48.810;9.150;2023-04-15T09:24:22;3.33;;;2.20;;
773;SDS011;370;48.810;9.150;2023-04-15T09:30:15;4.60;;;1.60;;
773;SDS011;370;48.810;9.150;2023-04-15T09:32:47;8.43;;;2.20;;
773;SDS011;370;48.810;9.150;2023-04-15T09:35:15;2.47;;;2.27;;
773;SDS011;370;48.810;9.150;2023-04-15T09:37:43;7.43;;;1.90;;
773;SDS011;370;48.810;9.150;2023-04-15T09:40:10;2.30;;;2.20;;
773;SDS011;370;48.810;9.150;2023-04-15T09:42:45;4.30;;;2.07;;
773;SDS011;370;48.810;9.150;2023-04-15T09:45:20;4.20;;;1.80;;
773;SDS011;370;48.810;9.150;2023-04-15T09:47:48;5.73;;;2.00;;
773;SDS011;370;48.810;9.150;2023-04-15T09:50:17;8.67;;;2.17;;
773;SDS011;370;48.810;9.150;2023-04-15T09:52:46;4.47;;;2.13;;
773;SDS011;370;48.810;9.150;2023-04-15T09:55:13;3.80;;;1.77;;
773;SDS011;370;48.810;9.150;2023-04-15T09:57:41;2.30;;;1.70;;
773;SDS011;370;48.810;9.150;2023-04-15T10:00:08;5.07;;;2.00;;
773;SDS011;370;48.810;9.150;2023-04-15T10:02:36;1.40;;;1.30;;
773;SDS011;370;48.810;9.150;2023-04-15T10:05:02;2.60;;;1.40;;
773;SDS011;370;48.810;9.150;2023-04-15T10:07:30;4.70;;;1.80;;
773;SDS011;370;48.810;9.150;2023-04-15T10:09:59;2.33;;;1.77;;
773;SDS011;370;48.810;9.150;2023-04-15T10:12:26;2.97;;;1.67;;
773;SDS011;370;48.810;9.150;2023-04-15T10:14:55;3.70;;;1.80;;
773;SDS011;370;48.810;9.150;2023-04-15T10:17:26;3.87;;;2.00;;
773;SDS011;370;48.810;9.150;2023-04-15T10:19:53;3.40;;;2.00;;
773;SDS011;370;48.810;9.150;2023-04-15T10:22:21;3.47;;;1.70;;
773;SDS011;370;48.810;9.150;2023-04-15T10:24:48;3.23;;;1.67;;
773;SDS011;370;48.810;9.150;2023-04-15T10:27:17;4.33;;;1.90;;
773;SDS011;370;48.810;9.150;2023-04-15T10:29:46;2.37;;;1.77;;
773;SDS011;370;48.810;9.150;2023-04-15T10:32:14;3.37;;;2.10;;
773;SDS011;370;48.810;9.150;2023-04-15T10:34:43;10.30;;;2.20;;
773;SDS011;370;48.810;9.150;2023-04-15T10:37:11;2.87;;;2.00;;
773;SDS011;370;48.810;9.150;2023-04-15T10:39:39;3.40;;;2.17;;
773;SDS011;370;48.810;9.150;2023-04-15T10:42:08;3.07;;;2.50;;
773;SDS011;370;48.810;9.150;2023-04-15T10:44:40;4.07;;;2.53;;
773;SDS011;370;48.810;9.150;2023-04-15T10:47:11;6.60;;;2.40;;
773;SDS011;370;48.810;9.150;2023-04-15T10:49:43;5.50;;;2.00;;
773;SDS011;370;48.810;9.150;2023-04-15T10:52:12;6.67;;;2.33;;
773;SDS011;370;48.810;9.150;2023-04-15T10:54:40;5.70;;;2.27;;
773;SDS011;370;48.810;9.150;2023-04-15T10:57:08;3.60;;;1.67;;
773;SDS011;370;48.810;9.150;2023-04-15T11:02:39;2.70;;;1.80;;
773;SDS011;370;48.810;9.150;2023-04-15T11:05:10;1.97;;;1.63;;
773;SDS011;370;48.810;9.150;2023-04-15T11:07:39;2.90;;;2.00;;
773;SDS011;370;48.810;9.150;2023-04-15T11:13:17;6.37;;;2.83;;
773;SDS011;370;48.810;9.150;2023-04-15T11:15:48;3.63;;;2.30;;
773;SDS011;370;48.810;9.150;2023-04-15T11:18:16;2.63;;;1.60;;
773;SDS011;370;48.810;9.150;2023-04-15T11:20:45;2.07;;;1.80;;
773;SDS011;370;48.810;9.150;2023-04-15T11:23:14;3.47;;;2.03;;
773;SDS011;370;48.810;9.150;2023-04-15T11:25:43;5.33;;;1.90;;
773;SDS011;370;48.810;9.150;2023-04-15T11:28:10;3.53;;;1.90;;
773;SDS011;370;48.810;9.150;2023-04-15T11:30:38;10.20;;;2.10;;
773;SDS011;370;48.810;9.150;2023-04-15T11:33:07;17.77;;;3.97;;
773;SDS011;370;48.810;9.150;2023-04-15T11:35:36;4.33;;;2.50;;
773;SDS011;370;48.810;9.150;2023-04-15T11:38:05;6.73;;;2.30;;
773;SDS011;370;48.810;9.150;2023-04-15T11:40:34;2.40;;;2.03;;
773;SDS011;370;48.810;9.150;2023-04-15T11:43:02;8.53;;;2.13;;
773;SDS011;370;48.810;9.150;2023-04-15T11:45:30;3.40;;;2.50;;
773;SDS011;370;48.810;9.150;2023-04-15T11:48:03;4.73;;;2.10;;
773;SDS011;370;48.810;9.150;2023-04-15T11:50:33;2.20;;;1.67;;
773;SDS011;370;48.810;9.150;2023-04-15T11:53:01;3.50;;;1.60;;
773;SDS011;370;48.810;9.150;2023-04-15T11:55:29;6.33;;;2.23;;
773;SDS011;370;48.810;9.150;2023-04-15T11:58:07;2.37;;;2.10;;
773;SDS011;370;48.810;9.150;2023-04-15T12:00:34;2.03;;;1.73;;
773;SDS011;370;48.810;9.150;2023-04-15T12:03:11;5.87;;;2.03;;
773;SDS011;370;48.810;9.150;2023-04-15T12:06:04;4.73;;;1.47;;
773;SDS011;370;48.810;9.150;2023-04-15T12:08:46;2.70;;;1.93;;
773;SDS011;370;48.810;9.150;2023-04-15T12:11:28;12.63;;;2.37;;
773;SDS011;370;48.810;9.150;2023-04-15T12:14:03;3.03;;;2.13;;
773;SDS011;370;48.810;9.150;2023-04-15T12:16:32;9.97;;;2.60;;
773;SDS011;370;48.810;9.150;2023-04-15T12:19:03;4.97;;;2.10;;
773;SDS011;370;48.810;9.150;2023-04-15T12:21:36;3.10;;;2.00;;
773;SDS011;370;48.810;9.150;2023-04-15T12:24:04;4.80;;;2.83;;
773;SDS011;370;48.810;9.150;2023-04-15T12:26:34;2.43;;;2.00;;
773;SDS011;370;48.810;9.150;2023-04-15T12:29:02;4.50;;;1.50;;
773;SDS011;370;48.810;9.150;2023-04-15T12:31:30;2.13;;;1.90;;
773;SDS011;370;48.810;9.150;2023-04-15T12:33:58;11.40;;;2.30;;
773;SDS011;370;48.810;9.150;2023-04-15T12:36:25;3.10;;;1.80;;
773;SDS011;370;48.810;9.150;2023-04-15T12:38:55;2.03;;;1.93;;
773;SDS011;370;48.810;9.150;2023-04-15T12:41:22;2.25;;;1.67;;
773;SDS011;370;48.810;9.150;2023-04-15T12:43:49;4.00;;;1.98;;
773;SDS011;370;48.810;9.150;2023-04-15T12:46:16;3.10;;;1.50;;
773;SDS011;370;48.810;9.150;2023-04-15T12:48:43;4.22;;;1.90;;
773;SDS011;370;48.810;9.150;2023-04-15T12:51:09;2.90;;;1.70;;
773;SDS011;370;48.810;9.150;2023-04-15T12:53:36;7.78;;;1.65;;
773;SDS011;370;48.810;9.150;2023-04-15T12:56:04;1.98;;;1.55;;
773;SDS011;370;48.810;9.150;2023-04-15T12:58:31;4.85;;;1.60;;
773;SDS011;370;48.810;9.150;2023-04-15T13:00:58;3.35;;;1.92;;
773;SDS011;370;48.810;9.150;2023-04-15T13:03:25;3.45;;;2.03;;
773;SDS011;370;48.810;9.150;2023-04-15T13:05:52;2.95;;;1.42;;
773;SDS011;370;48.810;9.150;2023-04-15T13:08:18;3.90;;;1.47;;
773;SDS011;370;48.810;9.150;2023-04-15T13:10:45;5.38;;;1.80;;
773;SDS011;370;48.810;9.150;2023-04-15T13:13:14;1.70;;;1.60;;
773;SDS011;370;48.810;9.150;2023-04-15T13:15:40;4.20;;;1.87;;
773;SDS011;370;48.810;9.150;2023-04-15T13:18:09;4.50;;;1.37;;
773;SDS011;370;48.810;9.150;2023-04-15T13:20:37;7.27;;;1.57;;
773;SDS011;370;48.810;9.150;2023-04-15T13:23:03;3.90;;;1.47;;
773;SDS011;370;48.810;9.150;2023-04-15T13:25:30;2.83;;;1.70;;
773;SDS011;370;48.810;9.150;2023-04-15T13:27:57;4.10;;;1.30;;
773;SDS011;370;48.810;9.150;2023-04-15T13:30:26;3.47;;;1.40;;
773;SDS011;370;48.810;9.150;2023-04-15T13:32:53;2.40;;;1.53;;
773;SDS011;370;48.810;9.150;2023-04-15T13:35:20;2.00;;;1.37;;
773;SDS011;370;48.810;9.150;2023-04-15T13:37:46;2.07;;;1.20;;
773;SDS011;370;48.810;9.150;2023-04-15T13:40:13;1.20;;;1.10;;
773;SDS011;370;48.810;9.150;2023-04-15T13:42:40;1.60;;;1.20;;
773;SDS011;370;48.810;9.150;2023-04-15T13:45:08;3.27;;;1.10;;
773;SDS011;370;48.810;9.150;2023-04-15T13:47:37;0.83;;;0.80;;
773;SDS011;370;48.810;9.150;2023-04-15T13:50:04;7.10;;;1.17;;
773;SDS011;370;48.810;9.150;2023-04-15T13:52:31;0.87;;;0.80;;
773;SDS011;370;48.810;9.150;2023-04-15T13:54:58;1.07;;;0.97;;
773;SDS011;370;48.810;9.150;2023-04-15T13:57:24;1.77;;;1.20;;
773;SDS011;370;48.810;9.150;2023-04-15T13:59:51;1.27;;;1.07;;
773;SDS011;370;48.810;9.150;2023-04-15T14:02:19;1.30;;;1.10;;
773;SDS011;370;48.810;9.150;2023-04-15T14:04:49;1.20;;;1.02;;
773;SDS011;370;48.810;9.150;2023-04-15T14:07:15;1.35;;;0.88;;
773;SDS011;370;48.810;9.150;2023-04-15T14:09:42;1.65;;;1.10;;
773;SDS011;370;48.810;9.150;2023-04-15T14:12:09;0.95;;;0.90;;
773;SDS011;370;48.810;9.150;2023-04-15T14:14:36;3.42;;;1.00;;
773;SDS011;370;48.810;9.150;2023-04-15T14:17:03;1.15;;;1.10;;
773;SDS011;370;48.810;9.150;2023-04-15T14:19:30;1.90;;;1.13;;
773;SDS011;370;48.810;9.150;2023-04-15T14:21:58;1.90;;;1.00;;
773;SDS011;370;48.810;9.150;2023-04-15T14:24:25;2.75;;;1.23;;
773;SDS011;370;48.810;9.150;2023-04-15T14:26:52;2.15;;;1.27;;
773;SDS011;370;48.810;9.150;2023-04-15T14:29:19;6.93;;;1.00;;
773;SDS011;370;48.810;9.150;2023-04-15T14:31:46;1.10;;;1.00;;
773;SDS011;370;48.810;9.150;2023-04-15T14:34:14;1.00;;;0.90;;
773;SDS011;370;48.810;9.150;2023-04-15T14:36:41;1.35;;;1.10;;
773;SDS011;370;48.810;9.150;2023-04-15T14:39:10;3.05;;;1.00;;
773;SDS011;370;48.810;9.150;2023-04-15T14:41:36;0.70;;;0.70;;
773;SDS011;370;48.810;9.150;2023-04-15T14:44:03;2.05;;;0.90;;
773;SDS011;370;48.810;9.150;2023-04-15T14:46:30;0.93;;;0.88;;
773;SDS011;370;48.810;9.150;2023-04-15T14:48:57;4.25;;;0.90;;
773;SDS011;370;48.810;9.150;2023-04-15T14:51:24;1.27;;;1.17;;
773;SDS011;370;48.810;9.150;2023-04-15T14:53:50;2.70;;;1.08;;
773;SDS011;370;48.810;9.150;2023-04-15T14:56:19;2.05;;;1.17;;
773;SDS011;370;48.810;9.150;2023-04-15T14:58:46;1.02;;;0.93;;
773;SDS011;370;48.810;9.150;2023-04-15T15:01:13;3.15;;;1.10;;
773;SDS011;370;48.810;9.150;2023-04-15T15:03:40;3.80;;;1.05;;
773;SDS011;370;48.810;9.150;2023-04-15T15:06:06;3.25;;;1.05;;
773;SDS011;370;48.810;9.150;2023-04-15T15:08:33;0.93;;;0.88;;
773;SDS011;370;48.810;9.150;2023-04-15T15:11:00;1.88;;;0.93;;
773;SDS011;370;48.810;9.150;2023-04-15T15:13:28;1.83;;;1.00;;
773;SDS011;370;48.810;9.150;2023-04-15T15:15:56;3.72;;;1.17;;
773;SDS011;370;48.810;9.150;2023-04-15T15:18:23;1.33;;;0.85;;
773;SDS011;370;48.810;9.150;2023-04-15T15:20:50;8.50;;;2.05;;
773;SDS011;370;48.810;9.150;2023-04-15T15:23:17;1.08;;;0.88;;
773;SDS011;370;48.810;9.150;2023-04-15T15:25:44;6.25;;;1.90;;
773;SDS011;370;48.810;9.150;2023-04-15T15:28:12;2.10;;;1.30;;
773;SDS011;370;48.810;9.150;2023-04-15T15:30:40;0.98;;;0.88;;
773;SDS011;370;48.810;9.150;2023-04-15T15:33:06;3.00;;;1.20;;
773;SDS011;370;48.810;9.150;2023-04-15T15:35:33;1.33;;;1.00;;
773;SDS011;370;48.810;9.150;2023-04-15T15:38:00;1.63;;;0.90;;
773;SDS011;370;48.810;9.150;2023-04-15T15:40:27;1.45;;;0.93;;
773;SDS011;370;48.810;9.150;2023-04-15T15:42:54;1.05;;;1.00;;
773;SDS011;370;48.810;9.150;2023-04-15T15:45:20;2.05;;;1.35;;
773;SDS011;370;48.810;9.150;2023-04-15T15:47:48;1.88;;;1.40;;
773;SDS011;370;48.810;9.150;2023-04-15T15:50:15;1.27;;;1.17;;
773;SDS011;370;48.810;9.150;2023-04-15T15:52:42;4.00;;;1.50;;
773;SDS011;370;48.810;9.150;2023-04-15T15:55:09;2.38;;;1.40;;
773;SDS011;370;48.810;9.150;2023-04-15T15:57:35;6.10;;;2.08;;
773;SDS011;370;48.810;9.150;2023-04-15T16:00:02;1.75;;;1.30;;
773;SDS011;370;48.810;9.150;2023-04-15T16:02:29;3.35;;;1.35;;
773;SDS011;370;48.810;9.150;2023-04-15T16:04:58;2.35;;;1.10;;